Terminal Aerodrome Forecast
Issued by NWS

Home | Current Version | Previous Version | Text Only | Print | Product List | Glossary On
Versions: 1 2 3 4 5 6 7 8 9 10 11 12 13 14 15 16 17 18 19 20 21 22 23 24
000
FTAK31 PANC 232340
TAFAVD
TAF
PAVD 232340Z 2400/2424 26013KT P6SM FEW020 SCT035
     FM240700 28006KT P6SM SCT015 BKN030
     FM240900 08004KT P6SM SCT005 BKN015
     FM242100 24009KT P6SM SCT020 BKN045
      AMD LTD TO CLD VIS AND WIND=

USA.gov is the U.S. government's official web portal to all federal, state and local government web resources and services.